createdAt,value
2018-03-18T00:01:46.446Z,11.23
2018-03-18T00:04:13.537Z,11.97
2018-03-18T00:06:40.764Z,12.87
2018-03-18T00:09:07.823Z,10.40
2018-03-18T00:11:34.906Z,9.40
2018-03-18T00:14:01.246Z,10.13
2018-03-18T00:16:34.586Z,9.50
2018-03-18T00:19:00.898Z,10.27
2018-03-18T00:21:27.962Z,11.10
2018-03-18T00:23:54.319Z,11.23
2018-03-18T00:26:20.663Z,11.87
2018-03-18T00:28:47.013Z,12.03
2018-03-18T00:31:14.849Z,11.73
2018-03-18T00:33:42.690Z,9.80
2018-03-18T00:36:09.018Z,11.27
2018-03-18T00:38:35.367Z,9.37
2018-03-18T00:41:01.679Z,11.40
2018-03-18T00:43:28.724Z,10.13
2018-03-18T00:45:55.214Z,12.27
2018-03-18T00:48:23.022Z,10.40
2018-03-18T00:50:49.385Z,11.67
2018-03-18T00:53:15.733Z,10.37
2018-03-18T00:55:42.097Z,11.70
2018-03-18T00:58:09.188Z,11.80
2018-03-18T01:00:35.519Z,12.20
2018-03-18T01:03:01.877Z,9.43
2018-03-18T01:05:29.686Z,10.63
2018-03-18T01:07:56.163Z,12.23
2018-03-18T01:10:24.045Z,11.70
2018-03-18T01:12:51.148Z,11.90
2018-03-18T01:15:17.490Z,13.40
2018-03-18T01:17:43.861Z,11.53
2018-03-18T01:20:11.692Z,12.30
2018-03-18T01:22:38.042Z,9.87
2018-03-18T01:25:05.141Z,13.70
2018-03-18T01:27:32.235Z,11.73
2018-03-18T01:29:58.562Z,11.83
2018-03-18T01:32:25.676Z,10.40
2018-03-18T01:34:51.981Z,12.43
2018-03-18T01:37:19.075Z,10.90
2018-03-18T01:39:45.508Z,10.57
2018-03-18T01:42:11.841Z,10.73
2018-03-18T01:44:38.217Z,10.10
2018-03-18T01:47:05.322Z,10.20
2018-03-18T01:49:31.637Z,10.97
2018-03-18T01:51:57.993Z,9.60
2018-03-18T01:54:24.339Z,12.53
2018-03-18T01:56:51.448Z,10.40
2018-03-18T01:59:17.809Z,9.80
2018-03-18T02:01:44.178Z,11.30
2018-03-18T02:04:10.549Z,12.13
2018-03-18T02:06:36.931Z,10.43
2018-03-18T02:09:04.054Z,12.53
2018-03-18T02:11:30.384Z,11.90
2018-03-18T02:13:57.003Z,11.37
2018-03-18T02:16:23.346Z,10.00
2018-03-18T02:18:49.719Z,11.17
2018-03-18T02:21:16.811Z,11.33
2018-03-18T02:23:43.156Z,10.33
2018-03-18T02:26:09.518Z,10.97
2018-03-18T02:28:36.627Z,13.30
2018-03-18T02:31:03.023Z,14.37
2018-03-18T02:33:29.393Z,10.97
2018-03-18T02:35:55.718Z,11.20
2018-03-18T02:38:23.593Z,11.47
2018-03-18T02:40:49.974Z,10.80
2018-03-18T02:43:17.097Z,11.60
2018-03-18T02:45:43.518Z,10.73
2018-03-18T02:48:09.899Z,10.80
2018-03-18T02:50:36.308Z,11.23
2018-03-18T02:53:02.710Z,10.67
2018-03-18T02:55:29.039Z,9.47
2018-03-18T02:57:55.358Z,9.70
2018-03-18T03:00:21.784Z,11.00
2018-03-18T03:02:48.143Z,10.83
2018-03-18T03:05:14.515Z,10.20
2018-03-18T03:07:40.852Z,9.83
2018-03-18T03:10:07.294Z,9.00
2018-03-18T03:12:33.653Z,12.60
2018-03-18T03:15:00.028Z,8.77
2018-03-18T03:17:26.434Z,9.10
2018-03-18T03:19:54.279Z,10.70
2018-03-18T03:22:20.626Z,10.30
2018-03-18T03:24:46.985Z,9.43
2018-03-18T03:27:14.052Z,10.43
2018-03-18T03:29:40.486Z,9.03
2018-03-18T03:32:06.871Z,10.10
2018-03-18T03:34:33.952Z,12.17
2018-03-18T03:37:01.069Z,10.00
2018-03-18T03:39:27.423Z,10.10
2018-03-18T03:41:54.828Z,9.23
2018-03-18T03:44:21.184Z,11.80
2018-03-18T03:46:47.693Z,10.53
2018-03-18T03:49:14.053Z,8.90
2018-03-18T03:51:41.131Z,8.63
2018-03-18T03:54:08.188Z,8.80
2018-03-18T03:56:35.340Z,8.70
2018-03-18T03:59:01.676Z,9.03
2018-03-18T04:01:28.103Z,8.67
2018-03-18T04:03:54.586Z,11.23
2018-03-18T04:06:20.921Z,11.90
2018-03-18T04:08:47.278Z,8.37
2018-03-18T04:11:14.383Z,11.60
2018-03-18T04:13:40.713Z,9.60
2018-03-18T04:16:07.111Z,9.17
2018-03-18T04:18:33.469Z,8.87
2018-03-18T04:20:59.822Z,10.30
2018-03-18T04:23:26.156Z,7.60
2018-03-18T04:25:52.496Z,8.23
2018-03-18T04:28:20.465Z,7.87
2018-03-18T04:30:47.605Z,9.17
2018-03-18T04:33:13.949Z,7.97
2018-03-18T04:35:41.799Z,8.30
2018-03-18T04:38:08.135Z,7.50
2018-03-18T04:40:35.995Z,10.33
2018-03-18T04:43:02.323Z,9.60
2018-03-18T04:45:28.712Z,7.33
2018-03-18T04:47:55.049Z,8.83
2018-03-18T04:50:21.439Z,7.77
2018-03-18T04:52:48.575Z,9.60
2018-03-18T04:55:16.573Z,8.30
2018-03-18T04:57:43.722Z,7.83
2018-03-18T05:00:11.029Z,7.83
2018-03-18T05:02:38.196Z,7.57
2018-03-18T05:05:04.579Z,7.60
2018-03-18T05:07:30.953Z,9.30
2018-03-18T05:09:57.331Z,7.43
2018-03-18T05:12:24.416Z,7.40
2018-03-18T05:14:51.533Z,6.83
2018-03-18T05:17:17.873Z,7.23
2018-03-18T05:19:44.217Z,6.33
2018-03-18T05:22:10.559Z,7.97
2018-03-18T05:24:36.916Z,6.67
2018-03-18T05:27:04.107Z,9.10
2018-03-18T05:29:31.159Z,7.17
2018-03-18T05:31:57.529Z,7.27
2018-03-18T05:34:23.859Z,8.80
2018-03-18T05:36:50.201Z,8.80
2018-03-18T05:39:16.565Z,8.60
2018-03-18T05:41:42.904Z,7.97
2018-03-18T05:44:09.988Z,6.93
2018-03-18T05:46:36.325Z,6.30
2018-03-18T05:49:02.700Z,6.93
2018-03-18T05:51:29.762Z,7.00
2018-03-18T05:53:56.123Z,7.00
2018-03-18T05:56:24.229Z,8.07
2018-03-18T05:58:50.583Z,7.40
2018-03-18T06:01:17.662Z,6.40
2018-03-18T06:03:44.065Z,7.77
2018-03-18T06:06:11.124Z,7.63
2018-03-18T06:08:38.183Z,8.17
2018-03-18T06:11:04.578Z,5.80
2018-03-18T06:13:31.024Z,7.00
2018-03-18T06:15:58.080Z,7.70
2018-03-18T06:18:25.238Z,6.67
2018-03-18T06:20:52.290Z,7.63
2018-03-18T06:23:21.102Z,6.47
2018-03-18T06:25:47.462Z,5.80
2018-03-18T06:28:13.798Z,6.10
2018-03-18T06:30:40.168Z,9.53
2018-03-18T06:33:07.213Z,6.30
2018-03-18T06:35:34.307Z,6.03
2018-03-18T06:38:00.635Z,7.90
2018-03-18T06:40:26.975Z,6.90
2018-03-18T06:42:53.314Z,5.37
2018-03-18T06:45:19.683Z,6.47
2018-03-18T06:47:46.850Z,6.13
2018-03-18T06:50:13.198Z,5.20
2018-03-18T06:52:41.063Z,6.90
2018-03-18T06:55:07.423Z,6.07
2018-03-18T06:57:33.782Z,5.97
2018-03-18T07:00:00.903Z,6.07
2018-03-18T07:02:27.223Z,7.97
2018-03-18T07:04:53.550Z,6.00
2018-03-18T07:07:20.702Z,6.53
2018-03-18T07:09:47.035Z,6.43
2018-03-18T07:12:13.506Z,9.87
2018-03-18T07:14:39.874Z,6.93
2018-03-18T07:17:06.223Z,6.97
2018-03-18T07:19:32.548Z,6.20
2018-03-18T07:21:59.056Z,6.60
2018-03-18T07:24:25.390Z,6.67
2018-03-18T07:26:51.770Z,6.27
2018-03-18T07:29:18.106Z,5.50
2018-03-18T07:31:45.198Z,9.00
2018-03-18T07:34:12.463Z,5.63
2018-03-18T07:36:38.815Z,5.70
2018-03-18T07:39:05.123Z,5.73
2018-03-18T07:41:31.482Z,6.17
2018-03-18T07:43:58.430Z,6.60
2018-03-18T07:46:25.604Z,7.70
2018-03-18T07:48:51.952Z,7.07
2018-03-18T07:51:19.056Z,5.70
2018-03-18T07:53:45.415Z,6.10
2018-03-18T07:56:12.559Z,4.70
2018-03-18T07:58:39.673Z,4.37
2018-03-18T08:01:06.032Z,6.03
2018-03-18T08:03:32.540Z,5.33
2018-03-18T08:05:58.911Z,8.83
2018-03-18T08:08:26.057Z,6.30
2018-03-18T08:10:53.181Z,5.73
2018-03-18T08:13:20.336Z,6.23
2018-03-18T08:15:46.680Z,6.17
2018-03-18T08:18:13.309Z,8.03
2018-03-18T08:20:40.428Z,5.90
2018-03-18T08:23:06.789Z,5.33
2018-03-18T08:25:34.806Z,5.27
2018-03-18T08:28:01.999Z,6.10
2018-03-18T08:30:28.444Z,5.47
2018-03-18T08:32:54.994Z,6.40
2018-03-18T08:35:22.062Z,5.43
2018-03-18T08:37:49.191Z,5.30
2018-03-18T08:40:16.407Z,4.53
2018-03-18T08:42:42.782Z,6.37
2018-03-18T08:45:09.866Z,5.07
2018-03-18T08:47:36.227Z,6.03
2018-03-18T08:50:02.606Z,5.17
2018-03-18T08:52:29.776Z,5.70
2018-03-18T08:54:56.137Z,3.90
2018-03-18T08:57:23.296Z,6.13
2018-03-18T08:59:49.790Z,4.23
2018-03-18T09:02:17.696Z,6.10
2018-03-18T09:04:44.026Z,5.90
2018-03-18T09:07:11.224Z,8.37
2018-03-18T09:09:37.577Z,7.20
2018-03-18T09:12:04.454Z,5.40
2018-03-18T09:14:30.797Z,4.93
2018-03-18T09:16:57.147Z,4.40
2018-03-18T09:19:24.325Z,4.13
2018-03-18T09:21:51.561Z,4.80
2018-03-18T09:24:18.616Z,4.50
2018-03-18T09:26:44.991Z,3.80
2018-03-18T09:29:11.372Z,4.27
2018-03-18T09:31:37.778Z,5.40
2018-03-18T09:34:04.215Z,5.43
2018-03-18T09:36:31.429Z,4.40
2018-03-18T09:38:59.508Z,3.90
2018-03-18T09:41:25.862Z,4.50
2018-03-18T09:43:52.968Z,11.93
2018-03-18T09:46:19.334Z,4.20
2018-03-18T09:48:45.693Z,3.93
2018-03-18T09:51:12.121Z,3.40
2018-03-18T09:53:38.664Z,4.80
2018-03-18T09:56:05.073Z,4.43
2018-03-18T09:58:31.463Z,4.17
2018-03-18T10:00:57.817Z,6.20
2018-03-18T10:03:24.156Z,4.83
2018-03-18T10:05:50.505Z,4.53
2018-03-18T10:08:16.909Z,4.73
2018-03-18T10:10:44.030Z,4.75
2018-03-18T10:13:10.394Z,4.00
2018-03-18T10:15:36.727Z,4.93
2018-03-18T10:18:03.860Z,4.83
2018-03-18T10:20:30.302Z,5.13
2018-03-18T10:22:56.723Z,5.00
2018-03-18T10:25:23.081Z,5.27
2018-03-18T10:27:49.502Z,4.67
2018-03-18T10:30:15.969Z,4.00
2018-03-18T10:32:43.110Z,4.30
2018-03-18T10:35:09.426Z,5.70
2018-03-18T10:37:36.659Z,6.17
2018-03-18T10:40:03.958Z,4.20
2018-03-18T10:42:30.382Z,4.00
2018-03-18T10:44:56.760Z,4.90
2018-03-18T10:47:23.234Z,4.83
2018-03-18T10:49:49.643Z,4.60
2018-03-18T10:52:16.101Z,4.33
2018-03-18T10:54:43.383Z,4.90
2018-03-18T10:57:09.760Z,4.17
2018-03-18T10:59:36.135Z,4.50
2018-03-18T11:02:05.378Z,6.40
2018-03-18T11:04:31.793Z,4.47
2018-03-18T11:06:58.139Z,6.40
2018-03-18T11:09:24.504Z,5.10
2018-03-18T11:11:50.914Z,5.13
2018-03-18T11:14:17.350Z,7.13
2018-03-18T11:16:44.433Z,4.67
2018-03-18T11:19:11.489Z,5.40
2018-03-18T11:21:37.827Z,5.80
2018-03-18T11:24:04.202Z,4.87
2018-03-18T11:26:30.547Z,4.53
2018-03-18T11:28:57.676Z,4.70
2018-03-18T11:31:24.056Z,4.67
2018-03-18T11:33:50.363Z,6.20
2018-03-18T11:36:16.919Z,5.23
2018-03-18T11:38:43.252Z,4.60
2018-03-18T11:41:10.367Z,4.27
2018-03-18T11:43:37.503Z,4.53
2018-03-18T11:46:03.872Z,4.30
2018-03-18T11:48:30.191Z,4.90
2018-03-18T11:50:57.313Z,4.47
2018-03-18T11:53:23.670Z,5.90
2018-03-18T11:55:50.873Z,4.40
2018-03-18T11:58:17.894Z,5.20
2018-03-18T12:00:44.976Z,4.37
2018-03-18T12:03:11.318Z,4.40
2018-03-18T12:05:39.150Z,4.30
2018-03-18T12:08:05.504Z,5.43
2018-03-18T12:10:31.866Z,5.03
2018-03-18T12:12:58.206Z,4.43
2018-03-18T12:15:25.370Z,4.20
2018-03-18T12:17:52.467Z,4.23
2018-03-18T12:20:18.822Z,6.03
2018-03-18T12:22:45.142Z,4.47
2018-03-18T12:25:11.499Z,5.73
2018-03-18T12:27:38.618Z,4.60
2018-03-18T12:30:04.967Z,4.70
2018-03-18T12:32:32.080Z,4.43
2018-03-18T12:34:58.440Z,3.80
2018-03-18T12:37:24.800Z,6.03
2018-03-18T12:40:04.193Z,4.97
2018-03-18T12:42:43.109Z,4.73
2018-03-18T12:45:09.790Z,5.90
2018-03-18T12:47:36.916Z,4.40
2018-03-18T12:50:04.067Z,4.73
2018-03-18T12:52:30.421Z,4.23
2018-03-18T12:54:56.756Z,4.67
2018-03-18T12:57:23.880Z,4.80
2018-03-18T12:59:50.241Z,5.97
2018-03-18T13:02:17.343Z,6.10
2018-03-18T13:04:43.915Z,4.27
2018-03-18T13:07:11.169Z,5.30
2018-03-18T13:09:37.527Z,5.47
2018-03-18T13:12:03.902Z,5.20
2018-03-18T13:14:30.278Z,5.07
2018-03-18T13:16:57.187Z,4.83
2018-03-18T13:19:23.527Z,4.30
2018-03-18T13:21:49.871Z,4.67
2018-03-18T13:24:16.971Z,6.00
2018-03-18T13:26:43.320Z,4.77
2018-03-18T13:29:09.658Z,5.80
2018-03-18T13:31:36.005Z,4.60
2018-03-18T13:34:02.333Z,5.30
2018-03-18T13:36:29.444Z,4.70
2018-03-18T13:38:56.531Z,4.40
2018-03-18T13:41:23.645Z,4.70
2018-03-18T13:43:50.006Z,5.33
2018-03-18T13:46:16.359Z,4.83
2018-03-18T13:48:42.742Z,6.70
2018-03-18T13:51:09.110Z,4.97
2018-03-18T13:53:35.446Z,4.57
2018-03-18T13:56:03.081Z,4.60
2018-03-18T13:58:30.235Z,4.40
2018-03-18T14:00:56.562Z,4.30
2018-03-18T14:03:22.890Z,4.57
2018-03-18T14:05:49.984Z,4.33
2018-03-18T14:08:16.363Z,4.70
2018-03-18T14:10:42.699Z,5.20
2018-03-18T14:13:09.249Z,4.53
2018-03-18T14:15:35.572Z,5.20
2018-03-18T14:18:01.933Z,4.13
2018-03-18T14:20:29.007Z,5.07
2018-03-18T14:22:55.366Z,4.90
2018-03-18T14:25:22.532Z,5.30
2018-03-18T14:27:49.972Z,4.93
2018-03-18T14:30:16.332Z,4.77
2018-03-18T14:32:43.447Z,4.83
2018-03-18T14:35:09.776Z,5.13
2018-03-18T14:37:36.122Z,4.73
2018-03-18T14:40:03.240Z,5.40
2018-03-18T14:42:29.588Z,4.93
2018-03-18T14:44:55.919Z,5.13
2018-03-18T14:47:22.254Z,4.90
2018-03-18T14:49:48.625Z,4.17
2018-03-18T14:52:15.707Z,4.70
2018-03-18T14:54:42.143Z,5.13
2018-03-18T14:57:08.471Z,4.90
2018-03-18T14:59:34.880Z,5.40
2018-03-18T15:02:01.973Z,4.93
2018-03-18T15:04:28.334Z,4.80
2018-03-18T15:06:55.746Z,5.00
2018-03-18T15:09:22.092Z,5.40
2018-03-18T15:11:48.568Z,4.93
2018-03-18T15:14:15.657Z,4.70
2018-03-18T15:16:42.016Z,4.40
2018-03-18T15:19:09.846Z,4.33
2018-03-18T15:21:36.181Z,4.10
2018-03-18T15:24:02.534Z,4.40
2018-03-18T15:26:28.874Z,4.60
2018-03-18T15:28:55.219Z,6.40
2018-03-18T15:31:21.587Z,4.13
2018-03-18T15:33:47.959Z,5.40
2018-03-18T15:36:14.339Z,4.57
2018-03-18T15:38:40.807Z,4.57
2018-03-18T15:41:07.164Z,4.73
2018-03-18T15:43:33.501Z,4.87
2018-03-18T15:45:59.948Z,4.90
2018-03-18T15:48:27.019Z,4.20
2018-03-18T15:50:53.716Z,3.93
2018-03-18T15:53:20.049Z,4.23
2018-03-18T15:55:46.388Z,3.97
2018-03-18T15:58:12.720Z,4.53
2018-03-18T16:00:39.831Z,4.63
2018-03-18T16:03:06.311Z,4.60
2018-03-18T16:05:33.438Z,4.27
2018-03-18T16:08:01.276Z,4.40
2018-03-18T16:10:27.723Z,4.47
2018-03-18T16:12:54.050Z,4.17
2018-03-18T16:15:20.679Z,4.33
2018-03-18T16:17:47.019Z,4.20
2018-03-18T16:20:14.138Z,4.00
2018-03-18T16:22:41.234Z,3.90
2018-03-18T16:25:07.612Z,3.80
2018-03-18T16:27:33.943Z,4.77
2018-03-18T16:30:12.657Z,4.47
2018-03-18T16:32:38.953Z,6.13
2018-03-18T16:35:05.286Z,4.50
2018-03-18T16:37:32.364Z,4.53
2018-03-18T16:39:59.485Z,4.33
2018-03-18T16:42:25.801Z,3.90
2018-03-18T16:44:52.116Z,4.10
2018-03-18T16:47:18.461Z,4.20
2018-03-18T16:49:44.837Z,3.73
2018-03-18T16:52:11.929Z,4.10
2018-03-18T16:54:38.303Z,6.40
2018-03-18T16:57:05.402Z,4.77
2018-03-18T16:59:31.704Z,5.30
2018-03-18T17:01:58.055Z,4.23
2018-03-18T17:04:24.512Z,3.70
2018-03-18T17:06:50.858Z,4.37
2018-03-18T17:09:17.240Z,3.70
2018-03-18T17:11:43.597Z,3.30
2018-03-18T17:14:09.921Z,5.50
2018-03-18T17:16:36.272Z,3.90
2018-03-18T17:19:03.422Z,3.80
2018-03-18T17:21:29.752Z,3.83
2018-03-18T17:23:56.095Z,4.77
2018-03-18T17:26:23.206Z,3.70
2018-03-18T17:28:49.541Z,4.93
2018-03-18T17:31:15.909Z,3.80
2018-03-18T17:33:42.509Z,4.30
2018-03-18T17:36:09.492Z,4.90
2018-03-18T17:38:35.848Z,5.93
2018-03-18T17:41:03.068Z,5.93
2018-03-18T17:43:29.533Z,5.03
2018-03-18T17:46:08.792Z,4.70
2018-03-18T17:48:48.100Z,4.07
2018-03-18T17:51:26.727Z,3.93
2018-03-18T17:56:53.778Z,4.50
2018-03-18T17:59:20.903Z,4.23
2018-03-18T18:01:47.377Z,5.07
2018-03-18T18:04:14.583Z,4.73
2018-03-18T18:06:41.090Z,6.20
2018-03-18T18:21:26.198Z,5.68
2018-03-18T18:23:52.522Z,6.67
2018-03-18T18:26:18.840Z,4.87
2018-03-18T18:28:45.296Z,6.47
2018-03-18T18:31:12.640Z,8.97
2018-03-18T18:33:39.021Z,5.50
2018-03-18T18:36:05.336Z,5.30
2018-03-18T18:38:31.620Z,4.90
2018-03-18T18:40:58.732Z,4.33
2018-03-18T18:43:25.929Z,4.63
2018-03-18T18:45:52.217Z,4.03
2018-03-18T18:48:19.241Z,6.10
2018-03-18T18:50:46.416Z,4.90
2018-03-18T18:53:13.454Z,4.70
2018-03-18T18:55:40.684Z,5.20
2018-03-18T18:58:06.973Z,5.33
2018-03-18T19:00:34.396Z,4.03
2018-03-18T19:03:01.499Z,4.47
2018-03-18T19:05:27.768Z,5.40
2018-03-18T19:07:55.104Z,4.70
2018-03-18T19:10:21.461Z,4.40
2018-03-18T19:12:47.795Z,7.40
2018-03-18T19:15:14.866Z,4.73
2018-03-18T19:17:41.176Z,5.10
2018-03-18T19:20:07.483Z,5.90
2018-03-18T19:22:35.702Z,6.00
2018-03-18T19:25:02.108Z,5.27
2018-03-18T19:27:29.131Z,4.00
2018-03-18T19:29:55.436Z,5.00
2018-03-18T19:32:21.744Z,4.83
2018-03-18T19:34:48.067Z,5.10
2018-03-18T19:37:14.387Z,7.33
2018-03-18T19:39:40.703Z,5.67
2018-03-18T19:42:07.749Z,5.10
2018-03-18T19:44:34.080Z,5.27
2018-03-18T19:47:00.450Z,7.60
2018-03-18T19:49:27.622Z,4.83
2018-03-18T19:51:53.978Z,5.33
2018-03-18T19:54:20.992Z,6.30
2018-03-18T19:56:47.380Z,4.23
2018-03-18T19:59:13.682Z,5.23
2018-03-18T20:01:39.988Z,6.90
2018-03-18T20:04:06.288Z,7.27
2018-03-18T20:06:32.824Z,5.10
2018-03-18T20:08:59.110Z,3.90
2018-03-18T20:11:26.158Z,5.77
2018-03-18T20:13:53.182Z,6.77
2018-03-18T20:16:19.534Z,4.60
2018-03-18T20:18:46.557Z,5.30
2018-03-18T20:21:12.826Z,4.47
2018-03-18T20:23:39.904Z,5.40
2018-03-18T20:26:06.211Z,5.97
2018-03-18T20:28:32.571Z,5.23
2018-03-18T20:30:59.898Z,6.40
2018-03-18T20:33:26.205Z,5.87
2018-03-18T20:35:53.468Z,5.20
2018-03-18T20:38:19.802Z,4.37
2018-03-18T20:40:46.091Z,4.27
2018-03-18T20:43:13.538Z,5.47
2018-03-18T20:45:39.840Z,4.90
2018-03-18T20:48:06.201Z,4.77
2018-03-18T20:50:32.510Z,4.93
2018-03-18T20:52:59.805Z,6.30
2018-03-18T20:55:26.865Z,5.50
2018-03-18T20:57:53.901Z,6.20
2018-03-18T21:00:20.942Z,5.63
2018-03-18T21:02:47.563Z,6.23
2018-03-18T21:05:14.752Z,7.97
2018-03-18T21:07:41.795Z,4.90
2018-03-18T21:10:09.160Z,5.10
2018-03-18T21:12:35.479Z,4.93
2018-03-18T21:15:02.532Z,5.77
2018-03-18T21:17:28.856Z,5.10
2018-03-18T21:19:55.897Z,8.00
2018-03-18T21:22:23.462Z,6.47
2018-03-18T21:24:50.514Z,5.87
2018-03-18T21:27:17.793Z,5.40
2018-03-18T21:29:44.082Z,5.17
2018-03-18T21:32:11.106Z,6.00
2018-03-18T21:34:37.460Z,5.07
2018-03-18T21:37:04.772Z,5.63
2018-03-18T21:39:31.072Z,6.73
2018-03-18T21:41:57.369Z,7.13
2018-03-18T21:44:23.644Z,6.10
2018-03-18T21:46:50.821Z,4.73
2018-03-18T21:49:17.129Z,6.30
2018-03-18T21:51:43.420Z,4.37
2018-03-18T21:54:10.433Z,6.03
2018-03-18T21:56:36.756Z,5.43
2018-03-18T21:59:03.073Z,6.23
2018-03-18T22:01:29.422Z,5.93
2018-03-18T22:03:55.717Z,6.70
2018-03-18T22:06:22.055Z,7.13
2018-03-18T22:08:49.973Z,6.10
2018-03-18T22:11:16.308Z,6.70
2018-03-18T22:13:44.273Z,5.30
2018-03-18T22:16:10.635Z,6.73
2018-03-18T22:18:36.936Z,4.70
2018-03-18T22:21:04.033Z,5.87
2018-03-18T22:23:31.053Z,5.57
2018-03-18T22:25:58.087Z,6.70
2018-03-18T22:28:25.122Z,6.83
2018-03-18T22:30:52.193Z,5.50
2018-03-18T22:33:19.239Z,5.17
2018-03-18T22:35:47.163Z,4.87
2018-03-18T22:38:13.459Z,8.30
2018-03-18T22:40:39.775Z,4.73
2018-03-18T22:43:06.080Z,5.27
2018-03-18T22:45:32.404Z,7.50
2018-03-18T22:47:59.469Z,7.33
2018-03-18T22:50:26.482Z,6.43
2018-03-18T22:52:52.848Z,6.50
2018-03-18T22:55:19.884Z,4.60
2018-03-18T22:57:46.933Z,5.13
2018-03-18T23:00:17.664Z,5.43
2018-03-18T23:02:44.416Z,6.33
2018-03-18T23:05:12.281Z,8.43
2018-03-18T23:07:39.313Z,5.27
2018-03-18T23:10:05.897Z,5.23
2018-03-18T23:12:32.187Z,5.20
2018-03-18T23:14:58.509Z,5.97
2018-03-18T23:17:25.564Z,6.20
2018-03-18T23:19:51.832Z,9.33
2018-03-18T23:22:19.759Z,7.47
2018-03-18T23:24:46.801Z,6.70
2018-03-18T23:27:14.053Z,5.87
2018-03-18T23:29:40.344Z,5.80
2018-03-18T23:32:06.625Z,8.33
2018-03-18T23:34:32.957Z,7.80
2018-03-18T23:36:59.268Z,4.90
2018-03-18T23:39:25.565Z,6.20
2018-03-18T23:41:51.860Z,6.00
2018-03-18T23:44:18.185Z,5.23
2018-03-18T23:46:45.278Z,4.53
2018-03-18T23:49:11.582Z,5.37
2018-03-18T23:51:37.877Z,6.07
2018-03-18T23:54:04.209Z,5.80
2018-03-18T23:56:31.245Z,5.10
2018-03-18T23:58:57.552Z,5.10
